createdAt,value
2023-02-20T00:00:03.239Z,12.20
2023-02-20T00:01:03.207Z,9.40
2023-02-20T00:02:03.275Z,8.60
2023-02-20T00:03:03.306Z,11.20
2023-02-20T00:04:03.202Z,10.50
2023-02-20T00:05:03.187Z,16.10
2023-02-20T00:06:03.143Z,11.20
2023-02-20T00:07:03.142Z,10.70
2023-02-20T00:08:03.119Z,10.50
2023-02-20T00:09:03.120Z,11.90
2023-02-20T00:10:03.131Z,12.40
2023-02-20T00:11:03.071Z,9.70
2023-02-20T00:12:03.073Z,10.10
2023-02-20T00:13:03.068Z,10.10
2023-02-20T00:14:03.032Z,9.90
2023-02-20T00:15:03.023Z,10.20
2023-02-20T00:16:03.112Z,9.80
2023-02-20T00:17:03.020Z,11.70
2023-02-20T00:18:02.982Z,8.90
2023-02-20T00:19:02.983Z,11.30
2023-02-20T00:20:02.960Z,11.40
2023-02-20T00:21:02.952Z,12.40
2023-02-20T00:22:03.001Z,14.50
2023-02-20T00:23:02.924Z,11.40
2023-02-20T00:24:02.902Z,13.40
2023-02-20T00:25:02.920Z,10.90
2023-02-20T00:26:02.882Z,12.80
2023-02-20T00:27:02.952Z,12.70
2023-02-20T00:28:02.887Z,11.00
2023-02-20T00:29:02.869Z,12.60
2023-02-20T00:30:02.848Z,11.40
2023-02-20T00:31:02.863Z,11.50
2023-02-20T00:32:02.903Z,12.90
2023-02-20T00:33:02.809Z,9.80
2023-02-20T00:34:02.843Z,10.70
2023-02-20T00:35:02.836Z,14.10
2023-02-20T00:36:02.758Z,10.90
2023-02-20T00:37:02.764Z,11.80
2023-02-20T00:38:02.824Z,11.90
2023-02-20T00:39:02.730Z,14.20
2023-02-20T00:40:02.735Z,12.80
2023-02-20T00:41:02.705Z,12.10
2023-02-20T00:42:02.687Z,11.30
2023-02-20T00:43:02.665Z,15.20
2023-02-20T00:44:02.648Z,12.60
2023-02-20T00:45:02.753Z,12.60
2023-02-20T00:46:02.756Z,14.70
2023-02-20T00:47:02.610Z,13.50
2023-02-20T00:48:02.601Z,11.20
2023-02-20T00:49:02.719Z,13.10
2023-02-20T00:50:02.612Z,12.80
2023-02-20T00:51:02.606Z,11.90
2023-02-20T00:52:02.543Z,11.30
2023-02-20T00:53:02.616Z,12.20
2023-02-20T00:54:02.555Z,12.00
2023-02-20T00:55:02.520Z,12.40
2023-02-20T00:56:02.518Z,12.00
2023-02-20T00:57:02.555Z,13.40
2023-02-20T00:58:02.458Z,17.00
2023-02-20T00:59:02.469Z,13.30
2023-02-20T01:00:02.469Z,11.40
2023-02-20T01:01:02.466Z,13.80
2023-02-20T01:02:02.433Z,12.40
2023-02-20T01:03:02.498Z,15.50
2023-02-20T01:04:02.461Z,13.30
2023-02-20T01:05:02.402Z,14.30
2023-02-20T01:06:02.378Z,13.10
2023-02-20T01:07:02.387Z,14.20
2023-02-20T01:08:02.361Z,14.90
2023-02-20T01:09:02.336Z,12.00
2023-02-20T01:10:02.321Z,14.70
2023-02-20T01:11:02.317Z,12.20
2023-02-20T01:12:02.293Z,12.30
2023-02-20T01:13:02.288Z,12.30
2023-02-20T01:14:02.303Z,11.60
2023-02-20T01:15:02.345Z,14.20
2023-02-20T01:16:02.308Z,17.30
2023-02-20T01:17:02.242Z,14.40
2023-02-20T01:18:02.383Z,15.10
2023-02-20T01:19:02.238Z,12.80
2023-02-20T01:20:02.229Z,13.30
2023-02-20T01:21:02.168Z,14.50
2023-02-20T01:22:02.244Z,14.00
2023-02-20T01:23:02.180Z,14.40
2023-02-20T01:24:02.202Z,12.10
2023-02-20T01:25:02.121Z,12.10
2023-02-20T01:26:02.285Z,15.60
2023-02-20T01:27:02.113Z,14.10
2023-02-20T01:28:02.091Z,11.40
2023-02-20T01:29:02.073Z,16.30
2023-02-20T01:30:02.150Z,12.70
2023-02-20T01:31:02.118Z,14.70
2023-02-20T01:32:02.196Z,12.60
2023-02-20T01:33:02.039Z,14.20
2023-02-20T01:34:02.042Z,12.90
2023-02-20T01:35:01.998Z,16.80
2023-02-20T01:36:01.987Z,16.60
2023-02-20T01:37:01.981Z,13.80
2023-02-20T01:38:01.973Z,11.20
2023-02-20T01:39:01.931Z,14.70
2023-02-20T01:40:01.959Z,11.60
2023-02-20T01:41:01.941Z,13.00
2023-02-20T01:42:01.903Z,15.00
2023-02-20T01:43:01.905Z,15.50
2023-02-20T01:44:01.882Z,11.80
2023-02-20T01:45:01.851Z,10.40
2023-02-20T01:46:01.933Z,15.00
2023-02-20T01:47:01.841Z,14.60
2023-02-20T01:48:01.828Z,14.60
2023-02-20T01:49:01.826Z,11.90
2023-02-20T01:50:01.848Z,13.10
2023-02-20T01:51:01.830Z,16.00
2023-02-20T01:52:01.777Z,15.30
2023-02-20T01:53:01.753Z,12.10
2023-02-20T01:54:01.749Z,12.60
2023-02-20T01:55:01.861Z,14.00
2023-02-20T01:56:01.771Z,13.90
2023-02-20T01:57:01.743Z,11.60
2023-02-20T01:58:01.718Z,14.90
2023-02-20T01:59:01.685Z,14.10
2023-02-20T02:00:01.860Z,13.90
2023-02-20T02:01:01.735Z,13.80
2023-02-20T02:02:01.754Z,13.70
2023-02-20T02:03:01.642Z,12.00
2023-02-20T02:04:01.652Z,12.90
2023-02-20T02:05:01.603Z,14.50
2023-02-20T02:06:01.618Z,13.00
2023-02-20T02:07:01.634Z,14.30
2023-02-20T02:08:01.602Z,12.80
2023-02-20T02:09:01.544Z,14.60
2023-02-20T02:10:01.545Z,14.10
2023-02-20T02:11:01.586Z,13.70
2023-02-20T02:12:01.512Z,11.80
2023-02-20T02:13:01.500Z,16.80
2023-02-20T02:14:01.507Z,13.60
2023-02-20T02:15:01.543Z,13.60
2023-02-20T02:16:01.765Z,13.70
2023-02-20T02:17:01.454Z,12.70
2023-02-20T02:18:01.461Z,13.60
2023-02-20T02:19:01.410Z,12.90
2023-02-20T02:20:01.451Z,13.50
2023-02-20T02:21:01.383Z,13.10
2023-02-20T02:22:01.499Z,13.50
2023-02-20T02:23:01.410Z,14.10
2023-02-20T02:24:01.349Z,14.10
2023-02-20T02:25:01.556Z,11.80
2023-02-20T02:26:01.352Z,13.30
2023-02-20T02:27:01.336Z,14.10
2023-02-20T02:28:01.332Z,13.80
2023-02-20T02:29:01.310Z,12.00
2023-02-20T02:30:01.282Z,13.10
2023-02-20T02:31:01.286Z,16.20
2023-02-20T02:32:01.329Z,14.10
2023-02-20T02:33:01.225Z,16.60
2023-02-20T02:34:01.225Z,14.30
2023-02-20T02:35:01.242Z,14.50
2023-02-20T02:36:01.197Z,14.00
2023-02-20T02:37:01.228Z,14.90
2023-02-20T02:38:01.220Z,12.60
2023-02-20T02:39:01.154Z,14.70
2023-02-20T02:40:01.147Z,15.10
2023-02-20T02:41:01.149Z,15.30
2023-02-20T02:42:01.118Z,13.90
2023-02-20T02:43:01.272Z,13.70
2023-02-20T02:44:01.151Z,13.80
2023-02-20T02:45:01.099Z,13.60
2023-02-20T02:46:01.128Z,15.20
2023-02-20T02:47:01.074Z,17.20
2023-02-20T02:48:01.057Z,16.90
2023-02-20T02:49:01.077Z,17.80
2023-02-20T02:50:01.033Z,15.50
2023-02-20T02:51:01.011Z,17.60
2023-02-20T02:52:00.998Z,19.20
2023-02-20T02:53:00.994Z,14.70
2023-02-20T02:54:00.993Z,14.80
2023-02-20T02:55:00.973Z,17.10
2023-02-20T02:56:00.961Z,15.60
2023-02-20T02:57:00.932Z,17.00
2023-02-20T02:59:11.104Z,16.60
2023-02-20T03:00:12.092Z,13.00
2023-02-20T03:01:12.105Z,16.10
2023-02-20T03:02:12.132Z,15.20
2023-02-20T03:03:12.054Z,16.40
2023-02-20T03:04:12.057Z,11.70
2023-02-20T03:05:12.025Z,19.60
2023-02-20T03:06:12.509Z,15.30
2023-02-20T03:07:12.003Z,16.50
2023-02-20T03:08:11.989Z,17.70
2023-02-20T03:09:11.990Z,14.00
2023-02-20T03:10:11.964Z,14.30
2023-02-20T03:11:11.941Z,15.40
2023-02-20T03:12:11.948Z,19.20
2023-02-20T03:13:11.914Z,14.50
2023-02-20T03:14:11.906Z,17.10
2023-02-20T03:15:11.889Z,12.10
2023-02-20T03:16:12.297Z,15.20
2023-02-20T03:17:11.890Z,14.10
2023-02-20T03:18:11.864Z,16.50
2023-02-20T03:19:11.854Z,13.70
2023-02-20T03:20:11.828Z,14.70
2023-02-20T03:21:11.813Z,13.80
2023-02-20T03:22:11.805Z,14.40
2023-02-20T03:23:11.787Z,17.60
2023-02-20T03:24:11.809Z,13.10
2023-02-20T03:25:11.766Z,11.90
2023-02-20T03:26:12.049Z,16.90
2023-02-20T03:27:11.737Z,18.70
2023-02-20T03:28:11.748Z,14.20
2023-02-20T03:29:11.742Z,17.30
2023-02-20T03:30:11.803Z,15.20
2023-02-20T03:31:11.728Z,15.00
2023-02-20T03:32:11.733Z,13.00
2023-02-20T03:33:11.687Z,15.40
2023-02-20T03:34:11.678Z,14.20
2023-02-20T03:35:11.640Z,12.70
2023-02-20T03:36:12.080Z,17.60
2023-02-20T03:37:11.618Z,13.90
2023-02-20T03:38:11.608Z,14.40
2023-02-20T03:39:11.610Z,14.70
2023-02-20T03:40:11.586Z,12.60
2023-02-20T03:41:11.562Z,15.00
2023-02-20T03:42:11.557Z,12.60
2023-02-20T03:43:11.570Z,13.60
2023-02-20T03:44:11.529Z,13.40
2023-02-20T03:45:11.507Z,15.60
2023-02-20T03:46:11.897Z,13.60
2023-02-20T03:47:11.489Z,12.50
2023-02-20T03:48:11.500Z,14.70
2023-02-20T03:49:11.470Z,14.30
2023-02-20T03:50:11.466Z,13.00
2023-02-20T03:51:11.442Z,14.10
2023-02-20T03:52:11.428Z,14.10
2023-02-20T03:53:11.631Z,15.00
2023-02-20T03:54:11.406Z,14.60
2023-02-20T03:55:11.385Z,16.00
2023-02-20T03:56:11.716Z,12.20
2023-02-20T03:57:11.354Z,12.90
2023-02-20T03:58:11.388Z,12.30
2023-02-20T03:59:11.333Z,12.00
2023-02-20T04:00:11.334Z,13.80
2023-02-20T04:01:11.325Z,13.60
2023-02-20T04:02:11.308Z,13.20
2023-02-20T04:03:11.315Z,15.60
2023-02-20T04:04:11.275Z,14.00
2023-02-20T04:05:11.268Z,14.10
2023-02-20T04:06:11.639Z,14.50
2023-02-20T04:07:11.233Z,14.50
2023-02-20T04:08:11.257Z,12.10
2023-02-20T04:09:11.220Z,11.80
2023-02-20T04:10:11.203Z,13.60
2023-02-20T04:11:11.187Z,12.20
2023-02-20T04:12:11.174Z,10.80
2023-02-20T04:13:11.162Z,12.30
2023-02-20T04:14:11.187Z,10.00
2023-02-20T04:15:11.138Z,12.90
2023-02-20T04:16:11.410Z,14.90
2023-02-20T04:17:11.104Z,14.70
2023-02-20T04:18:11.105Z,11.60
2023-02-20T04:19:11.114Z,11.10
2023-02-20T04:20:11.088Z,14.00
2023-02-20T04:21:11.057Z,15.00
2023-02-20T04:22:11.048Z,11.80
2023-02-20T04:23:11.028Z,12.10
2023-02-20T04:24:11.047Z,16.50
2023-02-20T04:25:11.447Z,12.90
2023-02-20T04:26:11.170Z,11.00
2023-02-20T04:27:10.987Z,11.90
2023-02-20T04:28:10.972Z,14.50
2023-02-20T04:29:10.961Z,10.60
2023-02-20T04:30:10.992Z,12.90
2023-02-20T04:31:10.999Z,12.70
2023-02-20T04:32:10.920Z,12.00
2023-02-20T04:33:10.909Z,13.10
2023-02-20T04:34:10.937Z,14.30
2023-02-20T04:35:10.901Z,12.40
2023-02-20T04:36:11.269Z,12.70
2023-02-20T04:37:10.847Z,15.90
2023-02-20T04:38:10.829Z,14.70
2023-02-20T04:39:10.843Z,13.10
2023-02-20T04:40:10.847Z,11.00
2023-02-20T04:41:10.796Z,10.90
2023-02-20T04:42:10.785Z,9.70
2023-02-20T04:43:10.796Z,14.90
2023-02-20T04:44:10.763Z,15.40
2023-02-20T04:45:10.764Z,10.70
2023-02-20T04:46:11.025Z,13.30
2023-02-20T04:47:10.716Z,14.60
2023-02-20T04:48:10.712Z,13.30
2023-02-20T04:49:10.690Z,14.40
2023-02-20T04:50:10.711Z,12.30
2023-02-20T04:51:10.673Z,15.40
2023-02-20T04:52:10.658Z,12.00
2023-02-20T04:53:10.639Z,13.10
2023-02-20T04:54:10.662Z,13.20
2023-02-20T04:55:10.615Z,14.40
2023-02-20T04:56:10.986Z,14.90
2023-02-20T04:57:10.587Z,12.60
2023-02-20T04:58:10.587Z,15.10
2023-02-20T04:59:10.561Z,16.00
2023-02-20T05:00:10.586Z,16.00
2023-02-20T05:01:10.587Z,12.60
2023-02-20T05:02:10.550Z,13.10
2023-02-20T05:03:10.513Z,14.40
2023-02-20T05:04:10.509Z,15.30
2023-02-20T05:05:10.487Z,14.00
2023-02-20T05:06:10.798Z,15.10
2023-02-20T05:07:10.462Z,17.20
2023-02-20T05:08:10.448Z,14.70
2023-02-20T05:09:10.435Z,14.30
2023-02-20T05:10:10.457Z,14.20
2023-02-20T05:11:10.438Z,14.80
2023-02-20T05:12:10.412Z,18.70
2023-02-20T05:13:10.387Z,14.90
2023-02-20T05:14:10.387Z,15.40
2023-02-20T05:15:10.364Z,14.80
2023-02-20T05:16:10.651Z,17.40
2023-02-20T05:17:10.336Z,17.90
2023-02-20T05:18:10.331Z,17.60
2023-02-20T05:19:10.312Z,15.00
2023-02-20T05:20:10.305Z,17.50
2023-02-20T05:21:10.301Z,15.00
2023-02-20T05:22:10.293Z,19.60
2023-02-20T05:23:10.258Z,18.10
2023-02-20T05:24:10.269Z,14.50
2023-02-20T05:25:10.242Z,16.50
2023-02-20T05:26:10.521Z,13.80
2023-02-20T05:27:10.210Z,17.00
2023-02-20T05:28:10.194Z,16.50
2023-02-20T05:29:10.186Z,14.70
2023-02-20T05:30:10.215Z,16.00
2023-02-20T05:31:10.224Z,14.20
2023-02-20T05:32:10.183Z,14.00
2023-02-20T05:33:10.130Z,17.70
2023-02-20T05:34:10.120Z,13.50
2023-02-20T05:35:10.129Z,14.30
2023-02-20T05:36:10.188Z,15.00
2023-02-20T05:37:10.097Z,15.40
2023-02-20T05:38:10.077Z,11.00
2023-02-20T05:39:10.056Z,15.00
2023-02-20T05:40:10.075Z,14.70
2023-02-20T05:41:10.037Z,12.50
2023-02-20T05:42:10.031Z,14.90
2023-02-20T05:43:10.010Z,15.10
2023-02-20T05:44:10.005Z,15.70
2023-02-20T05:45:10.003Z,17.40
2023-02-20T05:46:10.184Z,14.60
2023-02-20T05:47:10.067Z,17.90
2023-02-20T05:48:09.945Z,13.10
2023-02-20T05:49:09.946Z,17.00
2023-02-20T05:50:09.937Z,16.10
2023-02-20T05:51:09.901Z,14.40
2023-02-20T05:52:09.905Z,16.70
2023-02-20T05:53:09.881Z,15.80
2023-02-20T05:54:09.879Z,20.70
2023-02-20T05:55:09.885Z,16.10
2023-02-20T05:56:10.180Z,16.50
2023-02-20T05:57:09.836Z,18.60
2023-02-20T05:58:09.830Z,16.70
2023-02-20T05:59:09.800Z,17.40
2023-02-20T06:00:09.795Z,11.70
2023-02-20T06:01:09.944Z,14.90
2023-02-20T06:02:09.836Z,21.40
2023-02-20T06:03:09.824Z,16.10
2023-02-20T06:04:09.806Z,18.40
2023-02-20T06:05:09.679Z,18.10
2023-02-20T06:06:11.899Z,18.70
2023-02-20T06:07:09.654Z,14.30
2023-02-20T06:08:09.641Z,18.00
2023-02-20T06:09:09.622Z,20.20
2023-02-20T06:10:09.645Z,18.10
2023-02-20T06:11:09.609Z,15.30
2023-02-20T06:12:09.947Z,14.30
2023-02-20T06:13:09.564Z,17.40
2023-02-20T06:14:09.558Z,16.30
2023-02-20T06:15:09.549Z,17.60
2023-02-20T06:16:09.621Z,16.50
2023-02-20T06:17:09.538Z,15.80
2023-02-20T06:18:09.510Z,15.20
2023-02-20T06:19:09.496Z,16.90
2023-02-20T06:20:09.481Z,16.80
2023-02-20T06:21:09.489Z,16.80
2023-02-20T06:22:09.455Z,15.80
2023-02-20T06:23:09.443Z,15.40
2023-02-20T06:24:09.436Z,15.50
2023-02-20T06:25:09.415Z,17.60
2023-02-20T06:26:09.425Z,17.40
2023-02-20T06:27:09.397Z,17.00
2023-02-20T06:28:09.391Z,15.90
2023-02-20T06:29:09.370Z,15.70
2023-02-20T06:30:09.411Z,17.50
2023-02-20T06:31:09.426Z,16.00
2023-02-20T06:32:09.449Z,19.30
2023-02-20T06:33:09.330Z,19.00
2023-02-20T06:34:09.315Z,18.10
2023-02-20T06:35:09.287Z,16.50
2023-02-20T06:36:09.326Z,19.30
2023-02-20T06:37:09.281Z,20.50
2023-02-20T06:38:09.270Z,18.10
2023-02-20T06:39:09.248Z,21.40
2023-02-20T06:40:09.222Z,19.40
2023-02-20T06:41:09.247Z,20.80
2023-02-20T06:42:09.220Z,18.60
2023-02-20T06:43:09.189Z,21.50
2023-02-20T06:44:09.177Z,23.70
2023-02-20T06:45:09.173Z,25.20
2023-02-20T06:46:09.147Z,16.90
2023-02-20T06:47:09.192Z,21.90
2023-02-20T06:48:09.128Z,19.10
2023-02-20T06:49:09.108Z,17.30
2023-02-20T06:50:09.106Z,21.10
2023-02-20T06:51:09.104Z,19.90
2023-02-20T06:52:09.080Z,19.30
2023-02-20T06:53:09.071Z,20.20
2023-02-20T06:54:09.060Z,21.30
2023-02-20T06:55:09.050Z,19.30
2023-02-20T06:56:09.054Z,23.90
2023-02-20T06:57:09.084Z,21.70
2023-02-20T06:58:11.286Z,19.00
2023-02-20T06:59:09.033Z,22.00
2023-02-20T07:00:08.974Z,21.30
2023-02-20T07:01:09.082Z,20.40
2023-02-20T07:02:08.998Z,21.40
2023-02-20T07:03:08.942Z,19.00
2023-02-20T07:04:08.925Z,22.80
2023-02-20T07:05:08.917Z,21.30
2023-02-20T07:06:08.893Z,23.20
2023-02-20T07:07:08.913Z,24.70
2023-02-20T07:08:08.871Z,18.90
2023-02-20T07:09:08.865Z,22.20
2023-02-20T07:10:08.857Z,21.10
2023-02-20T07:11:08.842Z,20.90
2023-02-20T07:12:08.838Z,23.80
2023-02-20T07:13:08.818Z,20.60
2023-02-20T07:14:08.798Z,22.40
2023-02-20T07:15:08.792Z,26.20
2023-02-20T07:16:08.822Z,23.40
2023-02-20T07:17:08.788Z,23.00
2023-02-20T07:18:08.754Z,21.80
2023-02-20T07:19:08.747Z,20.50
2023-02-20T07:20:08.720Z,19.40
2023-02-20T07:21:08.713Z,22.00
2023-02-20T07:22:08.715Z,25.00
2023-02-20T07:23:08.710Z,19.00
2023-02-20T07:24:08.686Z,21.30
2023-02-20T07:25:08.664Z,22.90
2023-02-20T07:26:08.656Z,20.30
2023-02-20T07:27:09.517Z,24.70
2023-02-20T07:28:08.667Z,19.60
2023-02-20T07:29:08.618Z,20.80
2023-02-20T07:30:08.641Z,22.40
2023-02-20T07:31:08.591Z,23.60
2023-02-20T07:32:08.612Z,20.50
2023-02-20T07:33:08.557Z,24.10
2023-02-20T07:34:08.541Z,20.80
2023-02-20T07:35:09.591Z,26.00
2023-02-20T07:36:08.512Z,20.60
2023-02-20T07:37:08.507Z,23.20
2023-02-20T07:38:08.508Z,23.80
2023-02-20T07:39:08.488Z,18.60
2023-02-20T07:40:08.544Z,22.30
2023-02-20T07:41:08.456Z,24.50
2023-02-20T07:42:08.438Z,23.10
2023-02-20T07:43:08.460Z,18.40
2023-02-20T07:44:08.398Z,21.80
2023-02-20T07:45:08.404Z,24.50
2023-02-20T07:46:08.414Z,21.30
2023-02-20T07:47:08.378Z,19.90
2023-02-20T07:48:08.387Z,20.40
2023-02-20T07:49:08.368Z,17.70
2023-02-20T07:50:08.355Z,20.00
2023-02-20T07:51:08.331Z,18.50
2023-02-20T07:52:08.309Z,20.50
2023-02-20T07:53:08.321Z,18.30
2023-02-20T07:54:08.293Z,20.30
2023-02-20T07:55:08.274Z,20.00
2023-02-20T07:56:08.262Z,20.40
2023-02-20T07:57:08.271Z,20.80
2023-02-20T07:58:08.258Z,20.40
2023-02-20T07:59:08.217Z,21.60
2023-02-20T08:00:08.204Z,19.90
2023-02-20T08:01:08.198Z,21.00
2023-02-20T08:02:08.182Z,22.50
2023-02-20T08:03:08.210Z,20.70
2023-02-20T08:04:08.152Z,18.60
2023-02-20T08:05:08.231Z,19.70
2023-02-20T08:06:08.131Z,19.00
2023-02-20T08:07:08.148Z,18.70
2023-02-20T08:08:08.131Z,18.80
2023-02-20T08:09:08.094Z,19.60
2023-02-20T08:10:08.073Z,20.60
2023-02-20T08:11:10.168Z,17.70
2023-02-20T08:12:08.057Z,19.20
2023-02-20T08:13:08.059Z,20.30
2023-02-20T08:14:08.021Z,18.00
2023-02-20T08:15:08.019Z,21.00
2023-02-20T08:16:08.052Z,19.80
2023-02-20T08:17:08.000Z,19.70
2023-02-20T08:18:18.712Z,19.30
2023-02-20T08:19:08.039Z,19.40
2023-02-20T08:20:07.954Z,18.80
2023-02-20T08:21:07.940Z,23.10
2023-02-20T08:22:07.997Z,22.60
2023-02-20T08:23:07.938Z,20.40
2023-02-20T08:24:07.900Z,19.30
2023-02-20T08:25:07.897Z,21.50
2023-02-20T08:26:07.876Z,19.00
2023-02-20T08:27:07.861Z,23.50
2023-02-20T08:28:07.849Z,22.30
2023-02-20T08:29:07.853Z,19.60
2023-02-20T08:30:07.898Z,20.20
2023-02-20T08:31:07.862Z,23.70
2023-02-20T08:32:07.874Z,20.60
2023-02-20T08:33:07.797Z,19.30
2023-02-20T08:34:07.820Z,20.70
2023-02-20T08:35:07.758Z,24.20
2023-02-20T08:36:07.741Z,22.10
2023-02-20T08:37:07.922Z,19.30
2023-02-20T08:38:07.930Z,20.70
2023-02-20T08:39:07.724Z,20.90
2023-02-20T08:40:07.690Z,21.20
2023-02-20T08:41:07.846Z,24.60
2023-02-20T08:42:07.662Z,20.00
2023-02-20T08:43:07.654Z,20.20
2023-02-20T08:44:07.656Z,22.50
2023-02-20T08:45:07.624Z,22.20
2023-02-20T08:46:07.679Z,20.00
2023-02-20T08:47:07.623Z,22.30
2023-02-20T08:48:07.584Z,21.60
2023-02-20T08:49:07.590Z,25.60
2023-02-20T08:50:07.641Z,21.50
2023-02-20T08:51:07.556Z,22.80
2023-02-20T08:52:07.540Z,25.10
2023-02-20T08:53:07.525Z,20.30
2023-02-20T08:54:07.529Z,25.90
2023-02-20T08:55:07.504Z,21.20
2023-02-20T08:56:07.498Z,22.80
2023-02-20T08:57:07.481Z,25.40
2023-02-20T08:58:07.457Z,23.60
2023-02-20T09:00:24.388Z,22.00
2023-02-20T09:01:25.064Z,25.00
2023-02-20T09:02:25.030Z,21.40
2023-02-20T09:03:25.006Z,23.20
2023-02-20T09:04:25.015Z,22.90
2023-02-20T09:05:25.039Z,26.60
2023-02-20T09:06:24.946Z,28.10
2023-02-20T09:07:25.106Z,25.20
2023-02-20T09:08:24.950Z,24.70
2023-02-20T09:09:24.961Z,25.10
2023-02-20T09:10:24.893Z,24.50
2023-02-20T09:11:24.993Z,29.70
2023-02-20T09:12:24.887Z,27.50
2023-02-20T09:13:24.865Z,26.70
2023-02-20T09:14:25.215Z,26.00
2023-02-20T09:15:24.859Z,25.20
2023-02-20T09:16:24.883Z,26.60
2023-02-20T09:17:24.805Z,32.60
2023-02-20T09:18:24.815Z,25.60
2023-02-20T09:19:24.857Z,25.20
2023-02-20T09:20:24.792Z,25.40
2023-02-20T09:21:24.845Z,27.50
2023-02-20T09:22:24.743Z,21.60
2023-02-20T09:23:24.831Z,24.80
2023-02-20T09:24:24.758Z,26.40
2023-02-20T09:25:24.725Z,23.10
2023-02-20T09:26:24.711Z,25.60
2023-02-20T09:27:24.760Z,25.70
2023-02-20T09:28:24.694Z,20.90
2023-02-20T09:29:24.755Z,22.80
2023-02-20T09:30:24.700Z,26.20
2023-02-20T09:31:24.769Z,24.00
2023-02-20T09:32:24.757Z,29.10
2023-02-20T09:33:24.596Z,24.10
2023-02-20T09:34:24.624Z,21.50
2023-02-20T09:35:24.586Z,23.20
2023-02-20T09:36:24.598Z,26.70
2023-02-20T09:37:24.548Z,23.60
2023-02-20T09:38:24.538Z,24.50
2023-02-20T09:39:24.581Z,21.30
2023-02-20T09:40:24.616Z,24.80
2023-02-20T09:41:24.523Z,21.10
2023-02-20T09:42:24.482Z,22.70
2023-02-20T09:43:24.489Z,20.90
2023-02-20T09:44:24.646Z,21.70
2023-02-20T09:45:24.470Z,23.90
2023-02-20T09:46:24.498Z,24.20
2023-02-20T09:47:24.428Z,21.70
2023-02-20T09:48:24.425Z,20.10
2023-02-20T09:49:24.443Z,22.80
2023-02-20T09:50:24.442Z,22.30
2023-02-20T09:51:24.372Z,20.00
2023-02-20T09:52:24.450Z,19.70
2023-02-20T09:53:24.360Z,23.00
2023-02-20T09:54:24.374Z,23.30
2023-02-20T09:55:24.338Z,23.80
2023-02-20T09:56:24.314Z,22.20
2023-02-20T09:57:24.333Z,22.40
2023-02-20T09:58:24.287Z,24.50
2023-02-20T09:59:24.351Z,24.40
2023-02-20T10:00:24.281Z,23.10
2023-02-20T10:01:24.244Z,21.70
2023-02-20T10:02:24.354Z,23.40
2023-02-20T10:03:24.382Z,21.80
2023-02-20T10:04:24.215Z,23.00
2023-02-20T10:05:24.239Z,23.00
2023-02-20T10:06:24.187Z,22.70
2023-02-20T10:07:24.164Z,22.80
2023-02-20T10:08:24.150Z,21.60
2023-02-20T10:09:24.134Z,20.50
2023-02-20T10:10:24.169Z,19.00
2023-02-20T10:11:24.128Z,24.60
2023-02-20T10:12:24.104Z,19.50
2023-02-20T10:13:24.111Z,18.20
2023-02-20T10:14:24.060Z,21.10
2023-02-20T10:15:24.189Z,23.50
2023-02-20T10:16:24.087Z,17.60
2023-02-20T10:17:24.075Z,17.90
2023-02-20T10:18:24.037Z,22.50
2023-02-20T10:19:24.027Z,20.20
2023-02-20T10:20:24.008Z,22.70
2023-02-20T10:21:23.988Z,20.30
2023-02-20T10:22:24.017Z,19.30
2023-02-20T10:23:24.002Z,17.60
2023-02-20T10:24:23.932Z,21.20
2023-02-20T10:25:23.966Z,19.80
2023-02-20T10:26:23.917Z,19.20
2023-02-20T10:27:23.934Z,20.00
2023-02-20T10:28:23.911Z,15.20
2023-02-20T10:29:23.874Z,17.90
2023-02-20T10:30:23.905Z,20.10
2023-02-20T10:31:23.983Z,17.60
2023-02-20T10:32:23.853Z,19.30
2023-02-20T10:33:23.832Z,20.20
2023-02-20T10:34:23.831Z,22.50
2023-02-20T10:35:23.812Z,18.00
2023-02-20T10:36:23.810Z,16.30
2023-02-20T10:37:23.785Z,17.40
2023-02-20T10:38:23.934Z,17.10
2023-02-20T10:39:23.807Z,21.40
2023-02-20T10:40:23.757Z,17.70
2023-02-20T10:41:23.761Z,17.40
2023-02-20T10:42:25.418Z,15.30
2023-02-20T10:43:25.530Z,20.50
2023-02-20T10:44:23.759Z,17.70
2023-02-20T10:45:23.686Z,17.40
2023-02-20T10:46:23.775Z,17.00
2023-02-20T10:47:23.664Z,18.10
2023-02-20T10:48:23.726Z,18.40
2023-02-20T10:49:23.679Z,19.20
2023-02-20T10:50:23.629Z,16.90
2023-02-20T10:51:23.624Z,16.90
2023-02-20T10:52:33.068Z,20.60
2023-02-20T10:53:23.648Z,15.90
2023-02-20T10:54:23.574Z,20.20
2023-02-20T10:55:23.571Z,16.30
2023-02-20T10:56:23.544Z,19.20
2023-02-20T10:57:23.542Z,16.00
2023-02-20T10:58:23.499Z,16.80
2023-02-20T10:59:23.625Z,14.30
2023-02-20T11:00:23.506Z,17.90
2023-02-20T11:01:23.674Z,17.60
2023-02-20T11:02:23.474Z,17.70
2023-02-20T11:03:23.491Z,15.00
2023-02-20T11:04:23.427Z,15.90
2023-02-20T11:05:23.686Z,17.80
2023-02-20T11:06:23.421Z,19.60
2023-02-20T11:07:23.415Z,17.50
2023-02-20T11:08:23.365Z,16.90
2023-02-20T11:09:23.377Z,17.20
2023-02-20T11:10:23.382Z,16.80
2023-02-20T11:11:23.355Z,20.10
2023-02-20T11:12:23.324Z,17.30
2023-02-20T11:13:23.358Z,16.40
2023-02-20T11:14:37.660Z,16.00
2023-02-20T11:15:23.272Z,13.80
2023-02-20T11:16:23.276Z,14.90
2023-02-20T11:17:23.314Z,17.70
2023-02-20T11:18:23.228Z,20.30
2023-02-20T11:19:23.367Z,12.80
2023-02-20T11:20:23.305Z,13.10
2023-02-20T11:21:23.251Z,17.90
2023-02-20T11:22:23.190Z,17.50
2023-02-20T11:23:23.226Z,16.50
2023-02-20T11:24:23.148Z,14.40
2023-02-20T11:25:23.140Z,15.20
2023-02-20T11:26:23.243Z,15.70
2023-02-20T11:27:23.248Z,16.50
2023-02-20T11:28:23.091Z,16.20
2023-02-20T11:29:23.106Z,12.80
2023-02-20T11:30:23.337Z,16.60
2023-02-20T11:31:23.121Z,13.00
2023-02-20T11:32:23.073Z,14.70
2023-02-20T11:33:23.104Z,14.10
2023-02-20T11:34:23.026Z,15.70
2023-02-20T11:35:23.016Z,16.40
2023-02-20T11:36:23.038Z,20.20
2023-02-20T11:37:22.999Z,12.60
2023-02-20T11:38:22.993Z,15.00
2023-02-20T11:39:22.959Z,14.80
2023-02-20T11:40:22.985Z,16.50
2023-02-20T11:41:25.430Z,15.20
2023-02-20T11:42:22.954Z,17.10
2023-02-20T11:43:22.927Z,14.60
2023-02-20T11:44:22.918Z,18.60
2023-02-20T11:45:22.920Z,16.50
2023-02-20T11:46:22.922Z,18.20
2023-02-20T11:47:22.881Z,15.90
2023-02-20T11:48:22.952Z,19.60
2023-02-20T11:49:22.856Z,19.00
2023-02-20T11:50:22.906Z,15.60
2023-02-20T11:51:22.902Z,15.90
2023-02-20T11:52:22.898Z,16.50
2023-02-20T11:53:23.041Z,16.10
2023-02-20T11:54:22.847Z,17.90
2023-02-20T11:55:22.792Z,17.40
2023-02-20T11:56:22.745Z,15.70
2023-02-20T11:57:22.741Z,16.30
2023-02-20T11:58:22.814Z,14.90
2023-02-20T11:59:22.695Z,15.60
2023-02-20T12:00:22.717Z,17.00
2023-02-20T12:01:22.717Z,14.90
2023-02-20T12:02:22.717Z,15.80
2023-02-20T12:03:22.638Z,15.70
2023-02-20T12:04:22.768Z,14.80
2023-02-20T12:05:22.738Z,18.10
2023-02-20T12:06:22.760Z,19.90
2023-02-20T12:07:22.592Z,17.60
2023-02-20T12:08:22.589Z,15.10
2023-02-20T12:09:22.558Z,17.80
2023-02-20T12:10:22.556Z,15.80
2023-02-20T12:11:22.660Z,16.60
2023-02-20T12:12:22.531Z,14.70
2023-02-20T12:13:22.591Z,15.10
2023-02-20T12:14:22.554Z,13.60
2023-02-20T12:15:22.488Z,14.50
2023-02-20T12:16:22.582Z,12.00
2023-02-20T12:17:24.910Z,15.20
2023-02-20T12:18:22.446Z,14.40
2023-02-20T12:19:22.518Z,13.30
2023-02-20T12:20:22.435Z,14.90
2023-02-20T12:21:22.482Z,15.40
2023-02-20T12:22:22.404Z,15.70
2023-02-20T12:23:22.399Z,14.20
2023-02-20T12:24:22.367Z,16.00
2023-02-20T12:25:22.379Z,15.50
2023-02-20T12:26:22.345Z,17.50
2023-02-20T12:27:22.382Z,13.20
2023-02-20T12:28:22.323Z,12.90
2023-02-20T12:29:22.314Z,14.80
2023-02-20T12:30:22.352Z,13.10
2023-02-20T12:31:23.070Z,16.10
2023-02-20T12:32:22.379Z,15.30
2023-02-20T12:33:22.462Z,14.20
2023-02-20T12:34:22.226Z,14.20
2023-02-20T12:35:22.227Z,16.10
2023-02-20T12:36:22.212Z,14.80
2023-02-20T12:37:22.219Z,11.50
2023-02-20T12:38:22.183Z,13.10
2023-02-20T12:39:22.205Z,14.60
2023-02-20T12:40:22.184Z,11.40
2023-02-20T12:41:22.201Z,14.10
2023-02-20T12:42:22.142Z,15.40
2023-02-20T12:43:22.146Z,15.70
2023-02-20T12:44:22.101Z,14.40
2023-02-20T12:45:22.279Z,13.70
2023-02-20T12:46:22.118Z,15.90
2023-02-20T12:47:22.077Z,14.40
2023-02-20T12:48:22.082Z,17.40
2023-02-20T12:49:22.041Z,13.40
2023-02-20T12:50:22.025Z,14.80
2023-02-20T12:51:22.032Z,15.90
2023-02-20T12:52:22.031Z,13.00
2023-02-20T12:53:21.980Z,13.30
2023-02-20T12:54:21.978Z,16.30